METAR Data
IDs: Format: Raw Decoded Include TAF

Data at: 0957 UTC 13 Aug 2022

KGOO 130935Z AUTO 00000KT 10SM CLR 21/01 A3008 RMK A01
KGOO 130915Z AUTO 00000KT 10SM CLR 21/02 A3008 RMK A01
KGOO 130855Z AUTO 00000KT 10SM CLR 20/03 A3008 RMK A01
KGOO 130835Z AUTO 00000KT 10SM CLR 20/04 A3008 RMK A01
KGOO 130815Z AUTO 00000KT 10SM CLR 21/04 A3008 RMK A01
KGOO 130755Z AUTO 00000KT 10SM CLR 21/04 A3008 RMK A01
KGOO 130735Z AUTO 00000KT 10SM CLR 21/04 A3009 RMK A01
KGOO 130715Z AUTO 00000KT 10SM CLR 21/04 A3009 RMK A01
KGOO 130655Z AUTO 00000KT 10SM CLR 21/05 A3009 RMK A01
KGOO 130635Z AUTO 00000KT 10SM CLR 21/05 A3009 RMK A01
KGOO 130615Z AUTO 00000KT 10SM CLR 21/05 A3009 RMK A01
KGOO 130555Z AUTO 00000KT 10SM CLR 20/05 A3009 RMK A01
KGOO 130535Z AUTO 00000KT 10SM CLR 21/05 A3009 RMK A01
KGOO 130515Z AUTO 00000KT 10SM CLR 22/05 A3009 RMK A01
KGOO 130455Z AUTO 00000KT 10SM CLR 22/05 A3009 RMK A01
KGOO 130435Z AUTO 00000KT 10SM CLR 22/05 A3009 RMK A01
KGOO 130415Z AUTO 00000KT 10SM CLR 22/06 A3009 RMK A01
KGOO 130355Z AUTO 00000KT 10SM CLR 23/05 A3009 RMK A01
KGOO 130335Z AUTO 00000KT 10SM CLR 23/05 A3008 RMK A01
KGOO 130315Z AUTO 00000KT 10SM CLR 24/04 A3008 RMK A01
KGOO 130250Z AUTO 00000KT 10SM CLR 26/04 A3008 RMK A01
KGOO 130230Z AUTO 00000KT 10SM CLR 27/04 A3008 RMK A01
KGOO 130210Z AUTO 00000KT 10SM CLR 28/04 A3007 RMK A01
KGOO 130150Z AUTO 00000KT 10SM CLR 28/04 A3008 RMK A01
KGOO 130130Z AUTO 00000KT 10SM CLR 29/03 A3007 RMK A01
KGOO 130110Z AUTO 00000KT 10SM CLR 30/03 A3008 RMK A01
KGOO 130055Z AUTO 00000KT 10SM CLR 29/01 A3008 RMK A01
KGOO 130035Z AUTO 00000KT 10SM CLR 30/02 A3008 RMK A01
KGOO 130015Z AUTO 00000KT 10SM CLR 31/02 A3008 RMK A01
KGOO 122355Z AUTO 00000KT 10SM CLR 31/01 A3009 RMK A01
KGOO 122335Z AUTO VRB04KT 10SM CLR 31/01 A3009 RMK A01
KGOO 122315Z AUTO VRB03G10KT 10SM CLR 31/01 A3010 RMK A01
KGOO 122255Z AUTO 00000KT 10SM CLR 31/02 A3010 RMK A01
KGOO 122235Z AUTO 00000G12KT 10SM CLR 31/02 A3011 RMK A01
KGOO 122215Z AUTO VRB03G12KT 10SM CLR 31/03 A3011 RMK A01
KGOO 122155Z AUTO 00000KT 10SM CLR 31/04 A3011 RMK A01
KGOO 122135Z AUTO 00000G10KT 10SM CLR 31/05 A3012 RMK A01
KGOO 122115Z AUTO VRB03G10KT 10SM CLR 30/04 A3012 RMK A01
KGOO 122055Z AUTO VRB04G11KT 10SM CLR 32/03 A3012 RMK A01
KGOO 122035Z AUTO VRB06G12KT 10SM CLR 31/05 A3012 RMK A01
KGOO 122015Z AUTO VRB06KT 10SM CLR 31/04 A3012 RMK A01
KGOO 121955Z AUTO VRB05KT 10SM CLR 31/02 A3012 RMK A01
KGOO 121930Z AUTO VRB07KT 10SM CLR 31/02 A3012 RMK A01
KGOO 121915Z AUTO VRB06KT 10SM CLR 30/01 A3012 RMK A01
KGOO 121855Z AUTO VRB04G11KT 10SM CLR 30/01 A3013 RMK A01
KGOO 121835Z AUTO 14007KT 10SM CLR 30/02 A3012 RMK A01
KGOO 121815Z AUTO 00000KT 10SM CLR 29/04 A3013 RMK A01
KGOO 121755Z AUTO 00000KT 10SM CLR 28/05 A3012 RMK A01
KGOO 121735Z AUTO 00000KT 10SM CLR 28/05 A3012 RMK A01
KGOO 121715Z AUTO 00000KT 10SM CLR 27/06 A3012 RMK A01
KGOO 121655Z AUTO 15004KT 10SM CLR 26/06 A3012 RMK A01
KGOO 121635Z AUTO 00000KT 10SM CLR 26/06 A3012 RMK A01
KGOO 121615Z AUTO 00000KT 10SM CLR 25/06 A3012 RMK A01
KGOO 121555Z AUTO 00000KT 10SM CLR 24/06 A3011 RMK A01
KGOO 121535Z AUTO 00000KT 10SM CLR 24/06 A3011 RMK A01
KGOO 121510Z AUTO 00000KT 10SM CLR 23/06 A3010 RMK A01
KGOO 121455Z AUTO 00000KT 10SM CLR 23/05 A3010 RMK A01
KGOO 121435Z AUTO 00000KT 10SM CLR 22/05 A3010 RMK A01
KGOO 121415Z AUTO 00000KT 10SM CLR 22/05 A3009 RMK A01
KGOO 121355Z AUTO 00000KT 10SM CLR 20/04 A3009 RMK A01
KGOO 121335Z AUTO 00000KT 10SM CLR 19/04 A3009 RMK A01
KGOO 121315Z AUTO 00000KT 10SM CLR 20/04 A3008 RMK A01
KGOO 121255Z AUTO 00000KT 10SM CLR 20/04 A3008 RMK A01
KGOO 121235Z AUTO 00000KT 10SM CLR 20/04 A3008 RMK A01
KGOO 121215Z AUTO 00000KT 10SM CLR 21/03 A3008 RMK A01
KGOO 121155Z AUTO 00000KT 10SM CLR 20/04 A3008 RMK A01
KGOO 121135Z AUTO 00000KT 10SM CLR 20/04 A3008 RMK A01
KGOO 121110Z AUTO 00000KT 10SM CLR 20/04 A3008 RMK A01
KGOO 121055Z AUTO 00000KT 10SM CLR 21/03 A3008 RMK A01
KGOO 121035Z AUTO 00000KT 10SM CLR 21/03 A3008 RMK A01
KGOO 121010Z AUTO 00000KT 10SM CLR 21/03 A3008 RMK A01
KGOO 120955Z AUTO 00000KT 10SM CLR 21/03 A3008 RMK A01
KGOO 120935Z AUTO 00000KT 10SM CLR 21/03 A3008 RMK A01
KGOO 120915Z AUTO 00000KT 10SM CLR 21/03 A3008 RMK A01
KGOO 120855Z AUTO 10006KT 10SM CLR 22/03 A3008 RMK A01
KGOO 120835Z AUTO 00000KT 10SM CLR 22/03 A3009 RMK A01
KGOO 120815Z AUTO 10006KT 10SM CLR 22/03 A3009 RMK A01
KGOO 120755Z AUTO 10005KT 10SM CLR 22/03 A3009 RMK A01
KGOO 120735Z AUTO 10006KT 10SM CLR 22/03 A3009 RMK A01
KGOO 120715Z AUTO 10004KT 10SM CLR 22/04 A3009 RMK A01
KGOO 120655Z AUTO 10005KT 10SM CLR 22/04 A3009 RMK A01
KGOO 120635Z AUTO 00000KT 10SM CLR 22/04 A3009 RMK A01
KGOO 120615Z AUTO 00000KT 10SM CLR 22/04 A3010 RMK A01
KGOO 120555Z AUTO 12005KT 10SM CLR 22/04 A3010 RMK A01
KGOO 120535Z AUTO 00000KT 10SM CLR 22/05 A3010 RMK A01
KGOO 120515Z AUTO 00000KT 10SM CLR 22/05 A3011 RMK A01
KGOO 120455Z AUTO 00000KT 10SM CLR 22/05 A3011 RMK A01
KGOO 120435Z AUTO 00000KT 10SM CLR 22/05 A3011 RMK A01
KGOO 120415Z AUTO 00000KT 10SM CLR 23/06 A3011 RMK A01
KGOO 120355Z AUTO 00000KT 10SM CLR 23/06 A3010 RMK A01
KGOO 120335Z AUTO 00000KT 10SM CLR 23/05 A3010 RMK A01
KGOO 120315Z AUTO 00000KT 10SM CLR 24/05 A3010 RMK A01
KGOO 120255Z AUTO 00000KT 10SM CLR 25/05 A3010 RMK A01
KGOO 120230Z AUTO 00000KT 10SM CLR 27/05 A3009 RMK A01
KGOO 120215Z AUTO 00000KT 10SM CLR 28/05 A3009 RMK A01
KGOO 120155Z AUTO 00000KT 10SM CLR 28/03 A3009 RMK A01
KGOO 120135Z AUTO 00000KT 10SM CLR 28/02 A3009 RMK A01
KGOO 120115Z AUTO 00000KT 10SM CLR 29/02 A3010 RMK A01
KGOO 120055Z AUTO 00000KT 10SM CLR 29/02 A3010 RMK A01
KGOO 120030Z AUTO 00000KT 10SM CLR 30/01 A3011 RMK A01
KGOO 120015Z AUTO 00000KT 10SM CLR 30/01 A3011 RMK A01
KGOO 112355Z AUTO 00000KT 10SM CLR 31/02 A3011 RMK A01
KGOO 112335Z AUTO VRB06KT 10SM CLR 31/02 A3011 RMK A01
KGOO 112315Z AUTO 15007KT 10SM CLR 31/02 A3012 RMK A01
KGOO 112255Z AUTO 00000G10KT 10SM CLR 32/01 A3012 RMK A01
KGOO 112235Z AUTO VRB03G12KT 10SM CLR 31/02 A3013 RMK A01
KGOO 112215Z AUTO 22007G13KT 160V260 10SM CLR 31/02 A3013 RMK A01